sensor_id;sensor_type;location;lat;lon;timestamp;P1;durP1;ratioP1;P2;durP2;ratioP2
18983;SDS011;9626;52.552;13.436;2022-11-20T00:01:07;16.93;;;11.13;;
18983;SDS011;9626;52.552;13.436;2022-11-20T00:03:34;15.90;;;10.40;;
18983;SDS011;9626;52.552;13.436;2022-11-20T00:06:04;15.13;;;10.37;;
18983;SDS011;9626;52.552;13.436;2022-11-20T00:08:31;16.43;;;10.57;;
18983;SDS011;9626;52.552;13.436;2022-11-20T00:11:01;14.43;;;9.87;;
18983;SDS011;9626;52.552;13.436;2022-11-20T00:13:38;13.93;;;9.47;;
18983;SDS011;9626;52.552;13.436;2022-11-20T00:16:05;15.90;;;9.90;;
18983;SDS011;9626;52.552;13.436;2022-11-20T00:18:33;15.73;;;11.60;;
18983;SDS011;9626;52.552;13.436;2022-11-20T00:21:03;17.03;;;11.20;;
18983;SDS011;9626;52.552;13.436;2022-11-20T00:23:30;14.97;;;10.63;;
18983;SDS011;9626;52.552;13.436;2022-11-20T00:25:56;16.50;;;10.73;;
18983;SDS011;9626;52.552;13.436;2022-11-20T00:28:28;19.47;;;10.13;;
18983;SDS011;9626;52.552;13.436;2022-11-20T00:31:00;18.57;;;10.50;;
18983;SDS011;9626;52.552;13.436;2022-11-20T00:33:30;14.70;;;9.40;;
18983;SDS011;9626;52.552;13.436;2022-11-20T00:36:02;15.93;;;10.57;;
18983;SDS011;9626;52.552;13.436;2022-11-20T00:38:30;15.73;;;10.67;;
18983;SDS011;9626;52.552;13.436;2022-11-20T00:40:57;14.60;;;9.83;;
18983;SDS011;9626;52.552;13.436;2022-11-20T00:43:24;19.17;;;10.00;;
18983;SDS011;9626;52.552;13.436;2022-11-20T00:45:55;17.53;;;11.30;;
18983;SDS011;9626;52.552;13.436;2022-11-20T00:48:22;16.93;;;11.00;;
18983;SDS011;9626;52.552;13.436;2022-11-20T00:50:48;13.43;;;10.27;;
18983;SDS011;9626;52.552;13.436;2022-11-20T00:53:14;15.50;;;10.00;;
18983;SDS011;9626;52.552;13.436;2022-11-20T00:55:40;15.67;;;11.37;;
18983;SDS011;9626;52.552;13.436;2022-11-20T00:58:06;17.17;;;10.70;;
18983;SDS011;9626;52.552;13.436;2022-11-20T01:00:32;17.30;;;10.83;;
18983;SDS011;9626;52.552;13.436;2022-11-20T01:02:58;14.90;;;10.57;;
18983;SDS011;9626;52.552;13.436;2022-11-20T01:05:24;16.23;;;11.00;;
18983;SDS011;9626;52.552;13.436;2022-11-20T01:07:50;16.07;;;10.80;;
18983;SDS011;9626;52.552;13.436;2022-11-20T01:10:16;16.10;;;10.60;;
18983;SDS011;9626;52.552;13.436;2022-11-20T01:12:42;17.43;;;11.50;;
18983;SDS011;9626;52.552;13.436;2022-11-20T01:15:08;16.70;;;11.50;;
18983;SDS011;9626;52.552;13.436;2022-11-20T01:17:35;13.20;;;10.00;;
18983;SDS011;9626;52.552;13.436;2022-11-20T01:20:01;15.10;;;10.73;;
18983;SDS011;9626;52.552;13.436;2022-11-20T01:22:26;19.87;;;11.57;;
18983;SDS011;9626;52.552;13.436;2022-11-20T01:24:52;14.73;;;10.33;;
18983;SDS011;9626;52.552;13.436;2022-11-20T01:27:18;18.63;;;11.47;;
18983;SDS011;9626;52.552;13.436;2022-11-20T01:29:44;18.47;;;12.10;;
18983;SDS011;9626;52.552;13.436;2022-11-20T01:32:10;18.57;;;11.73;;
18983;SDS011;9626;52.552;13.436;2022-11-20T01:34:36;14.80;;;10.60;;
18983;SDS011;9626;52.552;13.436;2022-11-20T01:37:02;18.47;;;11.13;;
18983;SDS011;9626;52.552;13.436;2022-11-20T01:39:28;17.97;;;11.37;;
18983;SDS011;9626;52.552;13.436;2022-11-20T01:41:55;16.60;;;10.50;;
18983;SDS011;9626;52.552;13.436;2022-11-20T01:44:47;15.43;;;10.10;;
18983;SDS011;9626;52.552;13.436;2022-11-20T01:47:26;16.13;;;11.50;;
18983;SDS011;9626;52.552;13.436;2022-11-20T01:50:04;18.63;;;11.17;;
18983;SDS011;9626;52.552;13.436;2022-11-20T01:52:41;21.90;;;12.43;;
18983;SDS011;9626;52.552;13.436;2022-11-20T01:55:15;20.57;;;12.13;;
18983;SDS011;9626;52.552;13.436;2022-11-20T01:57:47;20.17;;;12.20;;
18983;SDS011;9626;52.552;13.436;2022-11-20T02:00:16;19.97;;;12.33;;
18983;SDS011;9626;52.552;13.436;2022-11-20T02:02:48;16.90;;;10.73;;
18983;SDS011;9626;52.552;13.436;2022-11-20T02:05:32;15.20;;;10.53;;
18983;SDS011;9626;52.552;13.436;2022-11-20T02:08:02;17.37;;;11.10;;
18983;SDS011;9626;52.552;13.436;2022-11-20T02:10:31;16.97;;;11.40;;
18983;SDS011;9626;52.552;13.436;2022-11-20T02:12:57;18.17;;;10.90;;
18983;SDS011;9626;52.552;13.436;2022-11-20T02:15:43;18.03;;;11.27;;
18983;SDS011;9626;52.552;13.436;2022-11-20T02:18:10;15.93;;;10.00;;
18983;SDS011;9626;52.552;13.436;2022-11-20T02:20:40;17.60;;;11.80;;
18983;SDS011;9626;52.552;13.436;2022-11-20T02:23:12;16.50;;;11.80;;
18983;SDS011;9626;52.552;13.436;2022-11-20T02:25:39;15.60;;;11.20;;
18983;SDS011;9626;52.552;13.436;2022-11-20T02:28:08;17.57;;;11.93;;
18983;SDS011;9626;52.552;13.436;2022-11-20T02:30:35;17.67;;;12.17;;
18983;SDS011;9626;52.552;13.436;2022-11-20T02:33:01;19.20;;;11.30;;
18983;SDS011;9626;52.552;13.436;2022-11-20T02:37:54;17.90;;;12.20;;
18983;SDS011;9626;52.552;13.436;2022-11-20T02:40:21;15.40;;;11.30;;
18983;SDS011;9626;52.552;13.436;2022-11-20T02:42:48;17.27;;;12.67;;
18983;SDS011;9626;52.552;13.436;2022-11-20T02:45:17;18.77;;;11.40;;
18983;SDS011;9626;52.552;13.436;2022-11-20T02:47:43;18.70;;;12.30;;
18983;SDS011;9626;52.552;13.436;2022-11-20T02:50:09;16.60;;;10.67;;
18983;SDS011;9626;52.552;13.436;2022-11-20T02:52:36;17.20;;;11.90;;
18983;SDS011;9626;52.552;13.436;2022-11-20T02:55:02;16.90;;;12.37;;
18983;SDS011;9626;52.552;13.436;2022-11-20T02:57:28;18.93;;;12.90;;
18983;SDS011;9626;52.552;13.436;2022-11-20T02:59:54;19.80;;;11.97;;
18983;SDS011;9626;52.552;13.436;2022-11-20T03:02:20;16.63;;;11.77;;
18983;SDS011;9626;52.552;13.436;2022-11-20T03:04:46;18.17;;;12.73;;
18983;SDS011;9626;52.552;13.436;2022-11-20T03:07:12;16.43;;;12.30;;
18983;SDS011;9626;52.552;13.436;2022-11-20T03:09:38;17.70;;;12.10;;
18983;SDS011;9626;52.552;13.436;2022-11-20T03:12:04;16.87;;;12.20;;
18983;SDS011;9626;52.552;13.436;2022-11-20T03:14:30;19.63;;;11.97;;
18983;SDS011;9626;52.552;13.436;2022-11-20T03:16:56;23.90;;;12.37;;
18983;SDS011;9626;52.552;13.436;2022-11-20T03:19:23;17.90;;;12.73;;
18983;SDS011;9626;52.552;13.436;2022-11-20T03:21:49;17.97;;;11.77;;
18983;SDS011;9626;52.552;13.436;2022-11-20T03:24:15;16.27;;;11.70;;
18983;SDS011;9626;52.552;13.436;2022-11-20T03:26:41;20.17;;;12.63;;
18983;SDS011;9626;52.552;13.436;2022-11-20T03:29:07;16.60;;;11.03;;
18983;SDS011;9626;52.552;13.436;2022-11-20T03:31:51;18.80;;;13.20;;
18983;SDS011;9626;52.552;13.436;2022-11-20T03:34:17;19.53;;;12.60;;
18983;SDS011;9626;52.552;13.436;2022-11-20T03:36:43;18.80;;;12.50;;
18983;SDS011;9626;52.552;13.436;2022-11-20T03:39:09;19.43;;;13.33;;
18983;SDS011;9626;52.552;13.436;2022-11-20T03:41:36;18.67;;;12.77;;
18983;SDS011;9626;52.552;13.436;2022-11-20T03:44:05;22.17;;;15.20;;
18983;SDS011;9626;52.552;13.436;2022-11-20T03:46:33;21.03;;;14.47;;
18983;SDS011;9626;52.552;13.436;2022-11-20T03:48:59;24.93;;;14.77;;
18983;SDS011;9626;52.552;13.436;2022-11-20T03:51:26;22.27;;;14.23;;
18983;SDS011;9626;52.552;13.436;2022-11-20T03:53:54;21.90;;;13.80;;
18983;SDS011;9626;52.552;13.436;2022-11-20T03:56:23;21.00;;;14.40;;
18983;SDS011;9626;52.552;13.436;2022-11-20T03:58:50;21.97;;;14.23;;
18983;SDS011;9626;52.552;13.436;2022-11-20T04:01:17;19.30;;;12.97;;
18983;SDS011;9626;52.552;13.436;2022-11-20T04:03:45;20.60;;;13.47;;
18983;SDS011;9626;52.552;13.436;2022-11-20T04:06:16;23.13;;;12.93;;
18983;SDS011;9626;52.552;13.436;2022-11-20T04:08:44;21.47;;;14.07;;
18983;SDS011;9626;52.552;13.436;2022-11-20T04:11:14;17.20;;;12.40;;
18983;SDS011;9626;52.552;13.436;2022-11-20T04:13:45;19.20;;;12.13;;
18983;SDS011;9626;52.552;13.436;2022-11-20T04:16:13;17.77;;;12.03;;
18983;SDS011;9626;52.552;13.436;2022-11-20T04:18:39;19.97;;;13.10;;
18983;SDS011;9626;52.552;13.436;2022-11-20T04:21:05;20.13;;;12.80;;
18983;SDS011;9626;52.552;13.436;2022-11-20T04:23:32;18.97;;;12.67;;
18983;SDS011;9626;52.552;13.436;2022-11-20T04:26:02;18.47;;;11.90;;
18983;SDS011;9626;52.552;13.436;2022-11-20T04:28:33;20.30;;;13.27;;
18983;SDS011;9626;52.552;13.436;2022-11-20T04:31:10;21.80;;;13.30;;
18983;SDS011;9626;52.552;13.436;2022-11-20T04:33:38;17.73;;;12.63;;
18983;SDS011;9626;52.552;13.436;2022-11-20T04:38:32;18.23;;;12.77;;
18983;SDS011;9626;52.552;13.436;2022-11-20T04:41:01;18.23;;;12.90;;
18983;SDS011;9626;52.552;13.436;2022-11-20T04:43:29;21.63;;;12.73;;
18983;SDS011;9626;52.552;13.436;2022-11-20T04:45:56;20.03;;;12.90;;
18983;SDS011;9626;52.552;13.436;2022-11-20T04:48:23;19.53;;;13.13;;
18983;SDS011;9626;52.552;13.436;2022-11-20T04:50:51;17.27;;;12.00;;
18983;SDS011;9626;52.552;13.436;2022-11-20T04:53:18;18.40;;;12.93;;
18983;SDS011;9626;52.552;13.436;2022-11-20T04:55:44;18.20;;;11.83;;
18983;SDS011;9626;52.552;13.436;2022-11-20T04:58:11;17.20;;;11.03;;
18983;SDS011;9626;52.552;13.436;2022-11-20T05:00:38;16.50;;;12.57;;
18983;SDS011;9626;52.552;13.436;2022-11-20T05:03:04;19.60;;;13.03;;
18983;SDS011;9626;52.552;13.436;2022-11-20T05:05:30;20.43;;;13.77;;
18983;SDS011;9626;52.552;13.436;2022-11-20T05:07:57;19.10;;;13.10;;
18983;SDS011;9626;52.552;13.436;2022-11-20T05:10:24;18.43;;;12.47;;
18983;SDS011;9626;52.552;13.436;2022-11-20T05:12:51;17.33;;;11.47;;
18983;SDS011;9626;52.552;13.436;2022-11-20T05:15:17;20.43;;;12.73;;
18983;SDS011;9626;52.552;13.436;2022-11-20T05:17:47;17.63;;;12.67;;
18983;SDS011;9626;52.552;13.436;2022-11-20T05:20:14;20.87;;;13.53;;
18983;SDS011;9626;52.552;13.436;2022-11-20T05:22:40;16.53;;;12.20;;
18983;SDS011;9626;52.552;13.436;2022-11-20T05:25:06;19.80;;;13.60;;
18983;SDS011;9626;52.552;13.436;2022-11-20T05:27:32;19.20;;;12.77;;
18983;SDS011;9626;52.552;13.436;2022-11-20T05:29:58;18.27;;;12.03;;
18983;SDS011;9626;52.552;13.436;2022-11-20T05:32:24;19.13;;;12.03;;
18983;SDS011;9626;52.552;13.436;2022-11-20T05:34:51;21.03;;;12.03;;
18983;SDS011;9626;52.552;13.436;2022-11-20T05:37:18;18.70;;;12.30;;
18983;SDS011;9626;52.552;13.436;2022-11-20T05:39:44;20.80;;;13.13;;
18983;SDS011;9626;52.552;13.436;2022-11-20T05:42:10;17.53;;;11.77;;
18983;SDS011;9626;52.552;13.436;2022-11-20T05:44:54;20.53;;;12.67;;
18983;SDS011;9626;52.552;13.436;2022-11-20T05:47:20;17.83;;;12.43;;
18983;SDS011;9626;52.552;13.436;2022-11-20T05:49:46;17.93;;;12.67;;
18983;SDS011;9626;52.552;13.436;2022-11-20T05:52:12;18.20;;;12.50;;
18983;SDS011;9626;52.552;13.436;2022-11-20T05:54:38;15.57;;;11.20;;
18983;SDS011;9626;52.552;13.436;2022-11-20T05:57:04;17.87;;;11.77;;
18983;SDS011;9626;52.552;13.436;2022-11-20T05:59:30;20.20;;;12.93;;
18983;SDS011;9626;52.552;13.436;2022-11-20T06:01:56;17.63;;;11.03;;
18983;SDS011;9626;52.552;13.436;2022-11-20T06:04:22;20.10;;;12.73;;
18983;SDS011;9626;52.552;13.436;2022-11-20T06:06:48;15.43;;;10.97;;
18983;SDS011;9626;52.552;13.436;2022-11-20T06:09:14;22.90;;;12.63;;
18983;SDS011;9626;52.552;13.436;2022-11-20T06:11:40;18.27;;;12.43;;
18983;SDS011;9626;52.552;13.436;2022-11-20T06:14:06;19.00;;;12.80;;
18983;SDS011;9626;52.552;13.436;2022-11-20T06:16:32;20.03;;;12.13;;
18983;SDS011;9626;52.552;13.436;2022-11-20T06:18:58;19.50;;;13.63;;
18983;SDS011;9626;52.552;13.436;2022-11-20T06:21:24;17.27;;;12.20;;
18983;SDS011;9626;52.552;13.436;2022-11-20T06:23:51;18.03;;;12.00;;
18983;SDS011;9626;52.552;13.436;2022-11-20T06:26:20;16.03;;;11.30;;
18983;SDS011;9626;52.552;13.436;2022-11-20T06:28:51;16.73;;;11.50;;
18983;SDS011;9626;52.552;13.436;2022-11-20T06:31:18;17.53;;;11.17;;
18983;SDS011;9626;52.552;13.436;2022-11-20T06:33:46;16.17;;;11.30;;
18983;SDS011;9626;52.552;13.436;2022-11-20T06:36:14;15.60;;;11.20;;
18983;SDS011;9626;52.552;13.436;2022-11-20T06:38:41;19.97;;;11.93;;
18983;SDS011;9626;52.552;13.436;2022-11-20T06:41:12;16.77;;;12.13;;
18983;SDS011;9626;52.552;13.436;2022-11-20T06:43:42;18.90;;;11.90;;
18983;SDS011;9626;52.552;13.436;2022-11-20T06:46:09;15.57;;;11.30;;
18983;SDS011;9626;52.552;13.436;2022-11-20T06:48:39;15.47;;;11.20;;
18983;SDS011;9626;52.552;13.436;2022-11-20T06:51:06;19.20;;;12.80;;
18983;SDS011;9626;52.552;13.436;2022-11-20T06:53:34;15.57;;;12.10;;
18983;SDS011;9626;52.552;13.436;2022-11-20T06:56:00;17.07;;;11.77;;
18983;SDS011;9626;52.552;13.436;2022-11-20T06:58:27;16.53;;;11.10;;
18983;SDS011;9626;52.552;13.436;2022-11-20T07:01:04;17.87;;;11.67;;
18983;SDS011;9626;52.552;13.436;2022-11-20T07:03:35;16.70;;;11.73;;
18983;SDS011;9626;52.552;13.436;2022-11-20T07:06:01;17.90;;;12.20;;
18983;SDS011;9626;52.552;13.436;2022-11-20T07:08:29;19.73;;;12.33;;
18983;SDS011;9626;52.552;13.436;2022-11-20T07:10:59;17.77;;;12.43;;
18983;SDS011;9626;52.552;13.436;2022-11-20T07:13:27;18.00;;;12.23;;
18983;SDS011;9626;52.552;13.436;2022-11-20T07:15:54;18.07;;;12.00;;
18983;SDS011;9626;52.552;13.436;2022-11-20T07:18:20;19.13;;;11.23;;
18983;SDS011;9626;52.552;13.436;2022-11-20T07:20:46;18.60;;;11.70;;
18983;SDS011;9626;52.552;13.436;2022-11-20T07:23:13;17.33;;;12.83;;
18983;SDS011;9626;52.552;13.436;2022-11-20T07:25:39;19.20;;;12.37;;
18983;SDS011;9626;52.552;13.436;2022-11-20T07:28:04;18.43;;;11.97;;
18983;SDS011;9626;52.552;13.436;2022-11-20T07:30:30;17.30;;;12.43;;
18983;SDS011;9626;52.552;13.436;2022-11-20T07:32:57;17.57;;;12.33;;
18983;SDS011;9626;52.552;13.436;2022-11-20T07:35:23;17.37;;;12.13;;
18983;SDS011;9626;52.552;13.436;2022-11-20T07:37:50;18.50;;;12.70;;
18983;SDS011;9626;52.552;13.436;2022-11-20T07:40:16;19.33;;;12.27;;
18983;SDS011;9626;52.552;13.436;2022-11-20T07:42:53;19.13;;;12.53;;
18983;SDS011;9626;52.552;13.436;2022-11-20T07:45:20;21.50;;;13.43;;
18983;SDS011;9626;52.552;13.436;2022-11-20T07:47:48;19.67;;;13.27;;
18983;SDS011;9626;52.552;13.436;2022-11-20T07:50:14;18.37;;;12.70;;
18983;SDS011;9626;52.552;13.436;2022-11-20T07:52:40;19.57;;;12.70;;
18983;SDS011;9626;52.552;13.436;2022-11-20T07:55:07;21.37;;;13.57;;
18983;SDS011;9626;52.552;13.436;2022-11-20T07:57:34;19.23;;;12.47;;
18983;SDS011;9626;52.552;13.436;2022-11-20T08:00:00;21.03;;;13.30;;
18983;SDS011;9626;52.552;13.436;2022-11-20T08:02:26;19.60;;;12.90;;
18983;SDS011;9626;52.552;13.436;2022-11-20T08:04:52;17.93;;;12.43;;
18983;SDS011;9626;52.552;13.436;2022-11-20T08:07:18;19.20;;;13.20;;
18983;SDS011;9626;52.552;13.436;2022-11-20T08:09:44;16.83;;;12.47;;
18983;SDS011;9626;52.552;13.436;2022-11-20T08:12:19;19.03;;;12.23;;
18983;SDS011;9626;52.552;13.436;2022-11-20T08:15:05;18.50;;;11.07;;
18983;SDS011;9626;52.552;13.436;2022-11-20T08:17:32;19.20;;;13.03;;
18983;SDS011;9626;52.552;13.436;2022-11-20T08:19:58;18.40;;;13.40;;
18983;SDS011;9626;52.552;13.436;2022-11-20T08:22:24;18.93;;;12.63;;
18983;SDS011;9626;52.552;13.436;2022-11-20T08:24:50;18.60;;;13.00;;
18983;SDS011;9626;52.552;13.436;2022-11-20T08:27:16;18.03;;;12.30;;
18983;SDS011;9626;52.552;13.436;2022-11-20T08:29:42;19.90;;;12.77;;
18983;SDS011;9626;52.552;13.436;2022-11-20T08:32:08;19.13;;;10.70;;
18983;SDS011;9626;52.552;13.436;2022-11-20T08:34:34;20.00;;;13.47;;
18983;SDS011;9626;52.552;13.436;2022-11-20T08:37:01;19.10;;;12.70;;
18983;SDS011;9626;52.552;13.436;2022-11-20T08:39:27;19.50;;;13.17;;
18983;SDS011;9626;52.552;13.436;2022-11-20T08:41:53;18.50;;;13.03;;
18983;SDS011;9626;52.552;13.436;2022-11-20T08:44:19;20.93;;;14.97;;
18983;SDS011;9626;52.552;13.436;2022-11-20T08:46:45;19.93;;;13.97;;
18983;SDS011;9626;52.552;13.436;2022-11-20T08:49:14;20.00;;;13.83;;
18983;SDS011;9626;52.552;13.436;2022-11-20T08:51:40;21.23;;;14.87;;
18983;SDS011;9626;52.552;13.436;2022-11-20T08:54:07;20.10;;;13.50;;
18983;SDS011;9626;52.552;13.436;2022-11-20T08:56:34;18.27;;;13.37;;
18983;SDS011;9626;52.552;13.436;2022-11-20T08:59:01;20.00;;;13.83;;
18983;SDS011;9626;52.552;13.436;2022-11-20T09:01:27;19.43;;;12.77;;
18983;SDS011;9626;52.552;13.436;2022-11-20T09:03:55;22.50;;;14.83;;
18983;SDS011;9626;52.552;13.436;2022-11-20T09:06:22;19.10;;;12.60;;
18983;SDS011;9626;52.552;13.436;2022-11-20T09:08:51;20.50;;;13.80;;
18983;SDS011;9626;52.552;13.436;2022-11-20T09:11:19;25.43;;;16.87;;
18983;SDS011;9626;52.552;13.436;2022-11-20T09:13:45;21.27;;;11.53;;
18983;SDS011;9626;52.552;13.436;2022-11-20T09:16:11;18.30;;;11.40;;
18983;SDS011;9626;52.552;13.436;2022-11-20T09:18:37;22.80;;;14.50;;
18983;SDS011;9626;52.552;13.436;2022-11-20T09:21:05;22.90;;;14.00;;
18983;SDS011;9626;52.552;13.436;2022-11-20T09:23:33;22.10;;;13.77;;
18983;SDS011;9626;52.552;13.436;2022-11-20T09:26:01;22.40;;;12.40;;
18983;SDS011;9626;52.552;13.436;2022-11-20T09:28:32;20.73;;;14.03;;
18983;SDS011;9626;52.552;13.436;2022-11-20T09:30:59;22.27;;;15.10;;
18983;SDS011;9626;52.552;13.436;2022-11-20T09:33:25;19.47;;;11.87;;
18983;SDS011;9626;52.552;13.436;2022-11-20T09:35:51;23.43;;;14.87;;
18983;SDS011;9626;52.552;13.436;2022-11-20T09:38:18;26.17;;;14.20;;
18983;SDS011;9626;52.552;13.436;2022-11-20T09:40:45;20.90;;;12.57;;
18983;SDS011;9626;52.552;13.436;2022-11-20T09:43:27;20.50;;;14.17;;
18983;SDS011;9626;52.552;13.436;2022-11-20T09:46:25;22.33;;;14.50;;
18983;SDS011;9626;52.552;13.436;2022-11-20T09:54:35;20.97;;;13.10;;
18983;SDS011;9626;52.552;13.436;2022-11-20T09:57:11;22.23;;;14.27;;
18983;SDS011;9626;52.552;13.436;2022-11-20T09:59:43;21.67;;;13.90;;
18983;SDS011;9626;52.552;13.436;2022-11-20T10:08:16;20.87;;;13.33;;
18983;SDS011;9626;52.552;13.436;2022-11-20T10:31:54;19.70;;;11.77;;
18983;SDS011;9626;52.552;13.436;2022-11-20T10:34:33;18.20;;;13.10;;
18983;SDS011;9626;52.552;13.436;2022-11-20T10:37:18;19.00;;;13.00;;
18983;SDS011;9626;52.552;13.436;2022-11-20T10:42:46;19.67;;;12.43;;
18983;SDS011;9626;52.552;13.436;2022-11-20T10:45:21;18.10;;;11.13;;
18983;SDS011;9626;52.552;13.436;2022-11-20T10:53:37;20.73;;;13.33;;
18983;SDS011;9626;52.552;13.436;2022-11-20T10:56:07;20.17;;;12.53;;
18983;SDS011;9626;52.552;13.436;2022-11-20T10:58:48;20.37;;;14.17;;
18983;SDS011;9626;52.552;13.436;2022-11-20T11:01:22;17.50;;;12.57;;
18983;SDS011;9626;52.552;13.436;2022-11-20T11:03:49;18.80;;;12.70;;
18983;SDS011;9626;52.552;13.436;2022-11-20T11:06:37;18.20;;;12.50;;
18983;SDS011;9626;52.552;13.436;2022-11-20T11:09:20;19.47;;;11.87;;
18983;SDS011;9626;52.552;13.436;2022-11-20T11:11:57;17.60;;;12.90;;
18983;SDS011;9626;52.552;13.436;2022-11-20T11:14:23;15.20;;;11.23;;
18983;SDS011;9626;52.552;13.436;2022-11-20T11:16:50;22.77;;;13.13;;
18983;SDS011;9626;52.552;13.436;2022-11-20T11:19:18;20.60;;;12.83;;
18983;SDS011;9626;52.552;13.436;2022-11-20T11:21:54;16.67;;;11.97;;
18983;SDS011;9626;52.552;13.436;2022-11-20T11:24:23;19.10;;;12.63;;
18983;SDS011;9626;52.552;13.436;2022-11-20T11:27:04;20.27;;;13.07;;
18983;SDS011;9626;52.552;13.436;2022-11-20T11:29:37;17.93;;;12.03;;
18983;SDS011;9626;52.552;13.436;2022-11-20T11:32:07;18.63;;;12.87;;
18983;SDS011;9626;52.552;13.436;2022-11-20T11:34:41;20.07;;;12.53;;
18983;SDS011;9626;52.552;13.436;2022-11-20T11:37:20;17.33;;;11.77;;
18983;SDS011;9626;52.552;13.436;2022-11-20T11:39:49;18.57;;;12.17;;
18983;SDS011;9626;52.552;13.436;2022-11-20T11:42:17;18.73;;;11.97;;
18983;SDS011;9626;52.552;13.436;2022-11-20T11:44:45;14.63;;;9.77;;
18983;SDS011;9626;52.552;13.436;2022-11-20T11:47:32;19.43;;;12.77;;
18983;SDS011;9626;52.552;13.436;2022-11-20T11:52:39;15.70;;;11.27;;
18983;SDS011;9626;52.552;13.436;2022-11-20T11:55:17;19.73;;;11.97;;
18983;SDS011;9626;52.552;13.436;2022-11-20T11:57:57;16.37;;;8.77;;
18983;SDS011;9626;52.552;13.436;2022-11-20T12:00:35;14.40;;;10.47;;
18983;SDS011;9626;52.552;13.436;2022-11-20T12:03:08;16.67;;;9.73;;
18983;SDS011;9626;52.552;13.436;2022-11-20T12:05:49;18.83;;;9.93;;
18983;SDS011;9626;52.552;13.436;2022-11-20T12:08:23;17.50;;;11.47;;
18983;SDS011;9626;52.552;13.436;2022-11-20T12:10:59;17.20;;;11.10;;
18983;SDS011;9626;52.552;13.436;2022-11-20T12:15:55;14.63;;;9.97;;
18983;SDS011;9626;52.552;13.436;2022-11-20T12:18:22;23.17;;;12.17;;
18983;SDS011;9626;52.552;13.436;2022-11-20T12:21:12;18.50;;;11.90;;
18983;SDS011;9626;52.552;13.436;2022-11-20T12:40:28;15.47;;;11.10;;
18983;SDS011;9626;52.552;13.436;2022-11-20T12:46:14;14.87;;;10.40;;
18983;SDS011;9626;52.552;13.436;2022-11-20T12:51:34;14.33;;;9.83;;
18983;SDS011;9626;52.552;13.436;2022-11-20T12:56:46;15.37;;;9.13;;
18983;SDS011;9626;52.552;13.436;2022-11-20T13:07:43;11.97;;;7.93;;
18983;SDS011;9626;52.552;13.436;2022-11-20T13:10:18;11.50;;;7.63;;
18983;SDS011;9626;52.552;13.436;2022-11-20T13:12:57;11.57;;;8.33;;
18983;SDS011;9626;52.552;13.436;2022-11-20T13:18:20;13.63;;;8.27;;
18983;SDS011;9626;52.552;13.436;2022-11-20T13:20:46;10.87;;;7.57;;
18983;SDS011;9626;52.552;13.436;2022-11-20T13:23:23;11.73;;;7.80;;
18983;SDS011;9626;52.552;13.436;2022-11-20T13:25:52;9.57;;;7.57;;
18983;SDS011;9626;52.552;13.436;2022-11-20T13:28:59;11.63;;;7.97;;
18983;SDS011;9626;52.552;13.436;2022-11-20T13:31:34;9.87;;;6.70;;
18983;SDS011;9626;52.552;13.436;2022-11-20T13:34:03;12.50;;;7.80;;
18983;SDS011;9626;52.552;13.436;2022-11-20T13:36:31;13.20;;;8.73;;
18983;SDS011;9626;52.552;13.436;2022-11-20T13:38:58;12.37;;;8.47;;
18983;SDS011;9626;52.552;13.436;2022-11-20T13:41:32;14.17;;;8.30;;
18983;SDS011;9626;52.552;13.436;2022-11-20T13:46:48;12.20;;;8.87;;
18983;SDS011;9626;52.552;13.436;2022-11-20T13:49:16;11.00;;;8.20;;
18983;SDS011;9626;52.552;13.436;2022-11-20T13:51:56;11.83;;;8.20;;
18983;SDS011;9626;52.552;13.436;2022-11-20T13:54:55;12.77;;;8.57;;
18983;SDS011;9626;52.552;13.436;2022-11-20T14:00:20;15.07;;;9.77;;
18983;SDS011;9626;52.552;13.436;2022-11-20T14:05:46;15.67;;;10.07;;
18983;SDS011;9626;52.552;13.436;2022-11-20T14:08:59;13.43;;;9.20;;
18983;SDS011;9626;52.552;13.436;2022-11-20T14:11:18;13.53;;;8.93;;
18983;SDS011;9626;52.552;13.436;2022-11-20T14:16:32;13.20;;;8.90;;
18983;SDS011;9626;52.552;13.436;2022-11-20T14:19:24;13.43;;;9.03;;
18983;SDS011;9626;52.552;13.436;2022-11-20T14:21:47;12.57;;;9.07;;
18983;SDS011;9626;52.552;13.436;2022-11-20T14:24:31;13.53;;;9.17;;
18983;SDS011;9626;52.552;13.436;2022-11-20T14:26:58;12.97;;;8.60;;
18983;SDS011;9626;52.552;13.436;2022-11-20T14:29:27;11.80;;;8.50;;
18983;SDS011;9626;52.552;13.436;2022-11-20T14:32:00;10.87;;;7.70;;
18983;SDS011;9626;52.552;13.436;2022-11-20T14:34:30;14.70;;;8.93;;
18983;SDS011;9626;52.552;13.436;2022-11-20T14:37:05;12.00;;;8.33;;
18983;SDS011;9626;52.552;13.436;2022-11-20T14:39:40;13.97;;;8.90;;
18983;SDS011;9626;52.552;13.436;2022-11-20T14:44:47;12.17;;;8.70;;
18983;SDS011;9626;52.552;13.436;2022-11-20T14:47:17;13.73;;;9.33;;
18983;SDS011;9626;52.552;13.436;2022-11-20T14:49:54;13.73;;;9.37;;
18983;SDS011;9626;52.552;13.436;2022-11-20T14:52:23;14.10;;;9.17;;
18983;SDS011;9626;52.552;13.436;2022-11-20T14:54:57;12.97;;;8.50;;
18983;SDS011;9626;52.552;13.436;2022-11-20T14:57:30;14.70;;;9.40;;
18983;SDS011;9626;52.552;13.436;2022-11-20T15:02:54;17.07;;;9.70;;
18983;SDS011;9626;52.552;13.436;2022-11-20T15:05:22;18.03;;;9.37;;
18983;SDS011;9626;52.552;13.436;2022-11-20T15:07:51;16.77;;;10.27;;
18983;SDS011;9626;52.552;13.436;2022-11-20T15:10:49;15.30;;;9.30;;
18983;SDS011;9626;52.552;13.436;2022-11-20T15:13:36;13.73;;;9.70;;
18983;SDS011;9626;52.552;13.436;2022-11-20T15:16:22;14.97;;;9.23;;
18983;SDS011;9626;52.552;13.436;2022-11-20T15:19:21;13.73;;;9.57;;
18983;SDS011;9626;52.552;13.436;2022-11-20T15:22:09;15.03;;;9.47;;
18983;SDS011;9626;52.552;13.436;2022-11-20T15:25:00;15.13;;;10.93;;
18983;SDS011;9626;52.552;13.436;2022-11-20T15:27:44;16.77;;;9.70;;
18983;SDS011;9626;52.552;13.436;2022-11-20T15:30:33;13.33;;;9.50;;
18983;SDS011;9626;52.552;13.436;2022-11-20T15:33:04;16.10;;;10.43;;
18983;SDS011;9626;52.552;13.436;2022-11-20T15:35:30;15.70;;;9.67;;
18983;SDS011;9626;52.552;13.436;2022-11-20T15:37:56;17.10;;;12.30;;
18983;SDS011;9626;52.552;13.436;2022-11-20T15:40:22;21.80;;;12.13;;
18983;SDS011;9626;52.552;13.436;2022-11-20T15:42:48;20.17;;;12.47;;
18983;SDS011;9626;52.552;13.436;2022-11-20T15:45:31;18.33;;;10.50;;
18983;SDS011;9626;52.552;13.436;2022-11-20T15:48:03;15.90;;;10.33;;
18983;SDS011;9626;52.552;13.436;2022-11-20T15:50:52;17.50;;;10.47;;
18983;SDS011;9626;52.552;13.436;2022-11-20T15:53:26;15.37;;;10.07;;
18983;SDS011;9626;52.552;13.436;2022-11-20T15:55:52;16.37;;;10.90;;
18983;SDS011;9626;52.552;13.436;2022-11-20T15:58:18;15.37;;;10.77;;
18983;SDS011;9626;52.552;13.436;2022-11-20T16:00:45;16.03;;;11.33;;
18983;SDS011;9626;52.552;13.436;2022-11-20T16:03:11;18.13;;;10.93;;
18983;SDS011;9626;52.552;13.436;2022-11-20T16:05:38;16.97;;;10.13;;
18983;SDS011;9626;52.552;13.436;2022-11-20T16:08:04;14.80;;;10.13;;
18983;SDS011;9626;52.552;13.436;2022-11-20T16:10:30;17.40;;;11.03;;
18983;SDS011;9626;52.552;13.436;2022-11-20T16:12:56;12.33;;;8.80;;
18983;SDS011;9626;52.552;13.436;2022-11-20T16:15:41;13.93;;;9.27;;
18983;SDS011;9626;52.552;13.436;2022-11-20T16:18:14;15.47;;;10.03;;
18983;SDS011;9626;52.552;13.436;2022-11-20T16:20:43;14.77;;;9.63;;
18983;SDS011;9626;52.552;13.436;2022-11-20T16:23:10;15.60;;;10.20;;
18983;SDS011;9626;52.552;13.436;2022-11-20T16:25:36;13.30;;;9.67;;